Etusivu
METAR-TAF:

METAR-TAF

Lentoasemat :

Orio al Serion lentoasema

Bergamo, Italia

Leveyspiiri: 45-40N, Pituuspiiri: 009-42E, korkeus merenpinnasta: 238 m

Tämänhetkinen sää

Tämä raportti tehtiin 21 minuuttia sitten, kello 21.20 UTC
Tuuli 3 kn pohjoisen/luoteesta, vaihdellen lännen/luoteen ja pohjoisen/koillisen välillä
Lämpötila 7°C
Kosteus 87%
Ilmanpaine 1015 hPa
Näkyvyys 10 km tai enemmän
Hajonneita pilviä 3500 ft:n korkeudessa
heikkoa sadetta

METAR: LIME 182120Z 33003KT 300V020 9999 -RA BKN035 07/05 Q1015 NOSIG

Aika: 22:41 (21:41 UTC)

Sääennuste

Tämä raportti tehtiin 4 tuntia ja 41 minuuttia sitten, kello 17.00 UTC
Ennuste voimassa 18. päivästä klo 18 UTC - 19. päivään klo 18 UTC
Tuuli 5 kn eri suunnista
Näkyvyys: 7000 m
Hajanaisia pilviä 2000 ft:n korkeudessa
Hajonneita pilviä 4000 ft:n korkeudessa
sadetta

TAF: LIME 181700Z 1818/1918 VRB05KT 7000 RA SCT020 BKN040

Säähavainnot ja -ennusteet yli 4000 lentoasemalta (METAR- ja TAF-raportit).

Käytössä olevat sääasemat on merkitty karttaan keltaisilla ja punaisilla pisteillä.

Aseta hiiri pisteen päälle nähdäksesi sääaseman nimen.

Klikkaa sitten nähdäksesi säähavainnot ja -ennusteet.

Kartan vaihtaminen: klikkaa mustalla rastilla varustettuja vihreitä pisteitä, niin voit zoomata sisään; viivalla varustettua vihreää pistettä, niin voit zoomata ulos tai vihreitä nuolia, niin pääset viereisille kartoille.


METAR-TAF: